Time;durP1;ratioP1;P1;durP2;ratioP2;P2;SDS_P1;SDS_P2;PMS_P1;PMS_P2;Temp;Humidity;BMP_temperature;BMP_pressure;BME280_temperature;BME280_humidity;BME280_pressure;Samples;Min_cycle;Max_cycle;Signal;HPM_P1;HPM_P2
2022/05/29 02:16:13;;;;;;;4.78;1.60;;;;;;;13.41;100.00;93711.28;6213898;23;20075;-88
2022/05/29 02:18:45;;;;;;;2.08;1.63;;;;;;;13.45;100.00;93702.78;6190051;23;20360;-89
2022/05/29 02:21:22;;;;;;;120.78;6.50;;;;;;;13.37;100.00;93688.50;6215649;23;20001;-89
2022/05/29 02:23:51;;;;;;;10.60;2.08;;;;;;;13.45;100.00;93692.28;6191028;23;19997;-89
2022/05/29 02:26:27;;;;;;;7.95;2.08;;;;;;;13.53;100.00;93681.03;6191114;23;20524;-88
2022/05/29 02:29:02;;;;;;;46.25;2.72;;;;;;;13.60;100.00;93675.34;6215738;23;20389;-89
2022/05/29 02:32:05;;;;;;;3.00;1.73;;;;;;;13.67;100.00;93670.41;6192357;23;20104;-89
2022/05/29 02:34:31;;;;;;;636.47;28.58;;;;;;;13.22;100.00;93664.09;6216803;23;20000;-90
2022/05/29 02:37:10;;;;;;;22.90;3.13;;;;;;;13.01;100.00;93661.97;6217034;23;20000;-88
2022/05/29 02:40:00;;;;;;;9.23;2.60;;;;;;;12.82;100.00;93642.97;6215752;23;20001;-88
2022/05/29 02:42:33;;;;;;;11.93;3.55;;;;;;;12.75;100.00;93640.75;6216144;23;20087;-88
2022/05/29 02:45:10;;;;;;;6.47;3.55;;;;;;;12.54;100.00;93643.84;6190091;23;20004;-89
2022/05/29 02:47:45;;;;;;;6.30;4.32;;;;;;;12.53;100.00;93644.94;6214412;23;20000;-87
2022/05/29 02:50:46;;;;;;;7.10;4.20;;;;;;;12.44;100.00;93638.81;6215375;23;20001;-88
2022/05/29 02:53:13;;;;;;;11.15;5.32;;;;;;;12.26;100.00;93643.13;6196830;23;20027;-88
2022/05/29 02:55:41;;;;;;;12.02;4.75;;;;;;;12.28;100.00;93646.28;6190516;23;20353;-88
2022/05/29 02:58:13;;;;;;;6.97;4.85;;;;;;;12.24;100.00;93634.78;6215624;23;20007;-88
2022/05/29 03:00:51;;;;;;;6.20;4.30;;;;;;;12.23;100.00;93623.50;6191485;23;20441;-87
2022/05/29 03:03:31;;;;;;;10.85;4.20;;;;;;;12.21;100.00;93619.63;6190816;23;20019;-87
2022/05/29 03:06:07;;;;;;;9.50;4.57;;;;;;;12.22;100.00;93619.34;6190711;23;20004;-89
2022/05/29 03:08:47;;;;;;;6.90;4.95;;;;;;;12.50;100.00;93619.25;6215967;23;20393;-87
2022/05/29 03:11:25;;;;;;;10.48;4.22;;;;;;;12.95;100.00;93615.84;6215610;23;20004;-89
2022/05/29 03:14:15;;;;;;;6.18;3.55;;;;;;;13.14;100.00;93605.13;6190814;23;20088;-89
2022/05/29 03:16:43;;;;;;;4.53;3.42;;;;;;;13.12;100.00;93599.38;6190740;23;20001;-89
2022/05/29 03:19:27;;;;;;;4.00;3.35;;;;;;;12.98;100.00;93598.69;6216999;23;20433;-89
2022/05/29 03:22:19;;;;;;;4.22;3.05;;;;;;;13.07;100.00;93602.16;6190669;23;20421;-88
2022/05/29 03:25:02;;;;;;;3.65;2.60;;;;;;;12.94;100.00;93595.13;6215795;23;19993;-89
2022/05/29 03:27:39;;;;;;;2.88;2.30;;;;;;;13.15;100.00;93600.66;6215494;23;19999;-89
2022/05/29 03:30:18;;;;;;;2.97;2.33;;;;;;;13.25;100.00;93592.47;6190752;23;20007;-89
2022/05/29 03:32:44;;;;;;;2.08;1.63;;;;;;;12.99;100.00;93590.53;6217262;23;20444;-88
2022/05/29 03:35:32;;;;;;;2.53;1.95;;;;;;;13.21;100.00;93596.03;6217044;23;20028;-88
2022/05/29 03:37:59;;;;;;;129.57;6.82;;;;;;;13.14;100.00;93591.22;6192081;23;20000;-88
2022/05/29 03:40:27;;;;;;;238.60;9.82;;;;;;;12.88;100.00;93583.94;6217423;23;20058;-88
2022/05/29 03:42:52;;;;;;;2.85;1.70;;;;;;;13.05;100.00;93593.00;6216927;23;20393;-88
2022/05/29 03:45:18;;;;;;;35.60;2.45;;;;;;;13.12;100.00;93586.25;6192288;23;20079;-88
2022/05/29 03:47:43;;;;;;;174.25;8.98;;;;;;;13.11;100.00;93591.78;6192526;23;20001;-87
2022/05/29 03:50:12;;;;;;;3.15;1.83;;;;;;;12.86;100.00;93586.13;6192362;23;20007;-88
2022/05/29 03:52:38;;;;;;;2.03;1.70;;;;;;;12.61;100.00;93582.22;6217048;23;20086;-88
2022/05/29 03:55:04;;;;;;;15.15;2.10;;;;;;;12.61;100.00;93590.09;6216821;23;20009;-88
2022/05/29 03:57:30;;;;;;;2.05;1.75;;;;;;;12.98;100.00;93582.91;6217344;23;20061;-87
2022/05/29 03:59:56;;;;;;;2.15;1.67;;;;;;;13.09;100.00;93576.34;6192264;23;19997;-88
2022/05/29 04:02:21;;;;;;;4.15;1.60;;;;;;;13.18;100.00;93581.63;6217013;23;20313;-88
2022/05/29 04:04:47;;;;;;;5.47;1.58;;;;;;;13.23;100.00;93575.47;6216866;23;20000;-89
2022/05/29 04:07:12;;;;;;;7.85;1.60;;;;;;;13.32;100.00;93571.00;6192538;23;20000;-88
2022/05/29 04:12:22;;;;;;;1.77;1.40;;;;;;;13.36;100.00;93576.44;6218510;23;20015;-89
2022/05/29 04:14:48;;;;;;;1.77;1.55;;;;;;;13.42;100.00;93573.38;6217206;23;20309;-89
2022/05/29 04:17:16;;;;;;;1.52;1.25;;;;;;;13.61;100.00;93575.00;6191724;23;20004;-89
2022/05/29 04:19:42;;;;;;;1.70;1.08;;;;;;;13.51;100.00;93572.66;6217136;23;20004;-88
2022/05/29 04:22:09;;;;;;;0.93;0.82;;;;;;;13.46;100.00;93570.16;6217506;23;20005;-89
2022/05/29 04:24:35;;;;;;;1.00;0.90;;;;;;;13.55;100.00;93574.34;6216736;23;20046;-88
2022/05/29 04:27:00;;;;;;;1.88;0.90;;;;;;;13.54;100.00;93572.03;6216847;23;20004;-89
2022/05/29 04:29:26;;;;;;;3.00;1.15;;;;;;;13.70;100.00;93570.53;6191975;23;20055;-89
2022/05/29 04:34:36;;;;;;;1.10;1.00;;;;;;;13.82;100.00;93566.56;6216806;23;20020;-88
2022/05/29 04:37:02;;;;;;;4.57;1.00;;;;;;;13.90;100.00;93563.13;6216672;23;20139;-88
2022/05/29 04:39:29;;;;;;;1.00;0.90;;;;;;;14.05;100.00;93561.16;6218302;23;20001;-88
2022/05/29 04:41:55;;;;;;;1.33;1.23;;;;;;;14.17;100.00;93561.31;6216597;23;20017;-88
2022/05/29 04:44:20;;;;;;;145.40;7.38;;;;;;;13.89;100.00;93561.59;6216080;23;20047;-88
2022/05/29 04:46:45;;;;;;;38.97;2.10;;;;;;;13.71;100.00;93560.81;6216575;23;20079;-88
2022/05/29 04:49:11;;;;;;;2.17;0.93;;;;;;;13.67;100.00;93555.38;6217203;23;19996;-88
2022/05/29 04:51:36;;;;;;;1.30;1.10;;;;;;;13.60;100.00;93562.91;6191169;23;19996;-89
2022/05/29 04:54:02;;;;;;;9.07;1.95;;;;;;;13.77;100.00;93550.88;6216866;23;20012;-88
2022/05/29 04:56:27;;;;;;;40.10;3.13;;;;;;;13.96;100.00;93558.50;6191677;23;20003;-89
2022/05/29 04:58:53;;;;;;;8.90;1.50;;;;;;;13.85;100.00;93563.28;6215989;23;20032;-89
2022/05/29 05:01:18;;;;;;;1.90;1.27;;;;;;;14.10;100.00;93547.84;6215849;23;20051;-89
2022/05/29 05:03:44;;;;;;;4.18;0.68;;;;;;;13.89;100.00;93558.19;6215643;23;20004;-88
2022/05/29 05:06:09;;;;;;;7.55;1.30;;;;;;;13.84;100.00;93561.75;6216985;23;19992;-89
2022/05/29 05:08:35;;;;;;;29.73;1.70;;;;;;;14.19;100.00;93553.13;6216477;23;20443;-89
2022/05/29 05:11:00;;;;;;;6.20;1.10;;;;;;;14.09;100.00;93546.28;6216526;23;19997;-89
2022/05/29 05:13:27;;;;;;;1.25;1.02;;;;;;;14.22;100.00;93549.84;6217855;23;20004;-89
2022/05/29 05:16:02;;;;;;;1.67;0.10;;;;;;;13.88;100.00;93554.78;6191290;23;20087;-88
2022/05/29 05:18:28;;;;;;;0.10;0.10;;;;;;;13.42;100.00;93554.19;6191976;23;20043;-88
2022/05/29 05:20:53;;;;;;;0.90;0.08;;;;;;;13.21;100.00;93564.47;6218570;23;20000;-88
2022/05/29 05:23:18;;;;;;;0.20;0.17;;;;;;;12.96;100.00;93564.03;6216142;23;20001;-88
2022/05/29 05:25:44;;;;;;;3.60;0.00;;;;;;;13.13;100.00;93564.13;6215753;23;20008;-89
2022/05/29 05:28:09;;;;;;;3.90;0.30;;;;;;;13.75;100.00;93545.16;6215748;23;19997;-88
2022/05/29 05:30:35;;;;;;;0.30;0.10;;;;;;;13.88;100.00;93556.66;6215288;23;20067;-89
2022/05/29 05:33:00;;;;;;;0.20;0.20;;;;;;;14.02;100.00;93559.13;6215661;23;19997;-89
2022/05/29 05:35:26;;;;;;;0.13;0.10;;;;;;;13.45;100.00;93558.06;6214951;23;20167;-89
2022/05/29 05:37:51;;;;;;;0.15;0.10;;;;;;;13.33;100.00;93551.50;6215073;23;20051;-89
2022/05/29 05:40:17;;;;;;;0.10;0.10;;;;;;;13.51;100.00;93546.34;6215170;23;20417;-88
2022/05/29 05:42:42;;;;;;;0.15;0.10;;;;;;;13.70;100.00;93538.97;6214943;23;19996;-87
2022/05/29 05:45:10;;;;;;;0.10;0.10;;;;;;;14.05;100.00;93540.06;6189975;23;19997;-89
2022/05/29 05:47:36;;;;;;;0.17;0.10;;;;;;;13.91;100.00;93548.88;6190398;23;20004;-89
2022/05/29 05:50:02;;;;;;;0.05;0.05;;;;;;;13.97;100.00;93542.41;6190084;23;20000;-88
2022/05/29 05:52:27;;;;;;;0.77;0.20;;;;;;;14.08;100.00;93542.88;6190416;23;20390;-90
2022/05/29 05:54:53;;;;;;;0.17;0.08;;;;;;;14.06;100.00;93552.16;6189117;23;20015;-91
2022/05/29 05:57:19;;;;;;;0.00;0.00;;;;;;;13.48;100.00;93565.34;6215049;23;20071;-90
2022/05/29 05:59:45;;;;;;;0.08;0.08;;;;;;;13.14;100.00;93564.91;6189957;23;20353;-90
2022/05/29 06:02:11;;;;;;;0.10;0.10;;;;;;;13.36;100.00;93566.72;6190861;23;20072;-90
2022/05/29 06:04:38;;;;;;;0.20;0.20;;;;;;;13.09;100.00;93563.19;6191250;23;20001;-91
2022/05/29 06:07:03;;;;;;;0.03;0.03;;;;;;;13.22;100.00;93566.03;6190658;23;19997;-91
2022/05/29 06:09:29;;;;;;;4.22;0.32;;;;;;;13.02;100.00;93562.81;6215480;23;20365;-90
2022/05/29 06:11:55;;;;;;;0.10;0.10;;;;;;;12.63;100.00;93562.47;6215402;23;20063;-90
2022/05/29 06:14:21;;;;;;;0.55;0.20;;;;;;;12.99;100.00;93560.81;6190804;23;20000;-90
2022/05/29 06:16:46;;;;;;;0.22;0.20;;;;;;;12.97;100.00;93562.97;6214961;23;20310;-90
2022/05/29 06:19:12;;;;;;;2.38;0.30;;;;;;;12.68;100.00;93562.31;6190471;23;20067;-90
2022/05/29 06:21:37;;;;;;;0.55;0.30;;;;;;;13.10;100.00;93564.72;6215747;23;20047;-90
2022/05/29 06:24:03;;;;;;;0.30;0.30;;;;;;;12.91;100.00;93561.53;6190043;23;20424;-91
2022/05/29 06:26:29;;;;;;;1.20;0.35;;;;;;;12.71;100.00;93559.13;6215877;23;20039;-90
2022/05/29 06:28:54;;;;;;;0.28;0.25;;;;;;;12.91;100.00;93558.91;6190549;23;20011;-90
2022/05/29 06:31:20;;;;;;;0.20;0.20;;;;;;;13.04;100.00;93565.16;6215118;23;20004;-91
2022/05/29 06:33:45;;;;;;;1.20;0.40;;;;;;;12.87;100.00;93572.66;6215197;23;20005;-90
2022/05/29 06:36:16;;;;;;;0.43;0.40;;;;;;;12.79;100.00;93569.97;6215728;23;20003;-91
2022/05/29 06:38:43;;;;;;;0.60;0.50;;;;;;;12.95;100.00;93570.38;6190410;23;20007;-90
2022/05/29 06:41:11;;;;;;;3.63;0.45;;;;;;;12.91;100.00;93556.28;6190768;23;20087;-91
2022/05/29 06:43:40;;;;;;;1.58;0.73;;;;;;;12.69;100.00;93558.63;6215452;23;19996;-91
2022/05/29 06:46:07;;;;;;;80.05;3.63;;;;;;;12.64;100.00;93560.63;6191130;23;20000;-91
2022/05/29 06:48:34;;;;;;;1.67;0.90;;;;;;;12.69;100.00;93558.63;6215265;23;20345;-90
2022/05/29 06:51:14;;;;;;;0.93;0.80;;;;;;;13.03;100.00;93551.22;6190589;23;20086;-90
2022/05/29 06:53:52;;;;;;;;;;;;;;;;;;;;;
2022/05/29 06:56:22;;;;;;;7.03;1.00;;;;;;;12.96;100.00;93554.28;6215430;23;20084;-90
2022/05/29 06:58:50;;;;;;;1.08;0.98;;;;;;;13.46;100.00;93543.84;6191257;23;20036;-90
2022/05/29 07:07:16;;;;;;;1.75;1.08;;;;;;;14.22;100.00;93541.94;6216722;23;20076;-90
2022/05/29 07:09:44;;;;;;;37.72;2.55;;;;;;;13.65;100.00;93538.31;6216316;23;20032;-90
2022/05/29 07:12:19;;;;;;;1.83;1.15;;;;;;;14.14;100.00;93536.38;6191869;23;20012;-90
2022/05/29 07:15:17;;;;;;;;;;;;;;;;;;;;;
2022/05/29 07:17:46;;;;;;;8.95;2.13;;;;;;;13.89;100.00;93539.75;6217752;23;20373;-90
2022/05/29 07:20:26;;;;;;;14.98;2.60;;;;;;;13.35;100.00;93533.59;6194441;23;19997;-91
2022/05/29 07:23:14;;;;;;;4.15;2.58;;;;;;;14.14;100.00;93544.28;6218876;23;20020;-90
2022/05/29 07:25:55;;;;;;;;;;;;;;;;;;;;;
2022/05/29 07:28:29;;;;;;;11.00;2.42;;;;;;;13.96;100.00;93534.81;6217307;23;20035;-91
2022/05/29 07:31:03;;;;;;;58.85;4.18;;;;;;;14.15;100.00;93537.13;6218905;23;20071;-89
2022/05/29 07:33:38;;;;;;;3.80;2.25;;;;;;;14.54;100.00;93539.91;6194079;23;20417;-90
2022/05/29 07:36:09;;;;;;;7.43;2.20;;;;;;;13.99;100.00;93548.13;6193076;23;20039;-90
2022/05/29 07:38:48;;;;;;;6.13;2.65;;;;;;;14.02;100.00;93546.75;6217109;23;20071;-89
2022/05/29 07:44:00;;;;;;;13.07;2.80;;;;;;;13.82;100.00;93551.50;6217518;23;20059;-89
2022/05/29 07:46:50;;;;;;;;;;;;;;;;;;;;;
2022/05/29 07:49:17;;;;;;;2.97;2.20;;;;;;;15.07;100.00;93537.19;6217407;23;20024;-89
2022/05/29 07:51:55;;;;;;;3.17;1.98;;;;;;;15.27;100.00;93544.41;6193104;23;20048;-89
2022/05/29 07:54:54;;;;;;;;;;;;;;;;;;;;;
2022/05/29 07:57:30;;;;;;;2.20;1.90;;;;;;;15.24;100.00;93531.84;6207935;23;20421;-90
2022/05/29 08:03:28;;;;;;;6.20;2.00;;;;;;;15.00;100.00;93529.75;6202020;23;20079;-90
2022/05/29 08:05:57;;;;;;;2.97;1.80;;;;;;;14.89;100.00;93529.34;6136876;23;20012;-89
2022/05/29 08:08:34;;;;;;;4.75;1.98;;;;;;;14.72;100.00;93526.75;6217761;23;20046;-89
2022/05/29 08:11:17;;;;;;;;;;;;;;;;;;;;;
2022/05/29 08:13:54;;;;;;;;;;;;;;;;;;;;;
2022/05/29 08:16:44;;;;;;;;;;;;;;;;;;;;;
2022/05/29 08:19:37;;;;;;;;;;;;;;;;;;;;;
2022/05/29 08:22:09;;;;;;;4.10;2.53;;;;;;;14.56;100.00;93527.19;6217231;23;20024;-90
2022/05/29 08:30:56;;;;;;;;;;;;;;;;;;;;;
2022/05/29 08:33:35;;;;;;;18.17;3.92;;;;;;;13.74;100.00;93530.44;6216865;23;20043;-90
2022/05/29 08:36:24;;;;;;;5.93;3.50;;;;;;;13.78;100.00;93529.53;6191934;23;20004;-89
2022/05/29 08:39:04;;;;;;;;;;;;;;;;;;;;;
2022/05/29 08:42:01;;;;;;;;;;;;;;;;;;;;;
2022/05/29 08:44:49;;;;;;;14.00;3.80;;;;;;;13.91;100.00;93519.16;6218035;23;20027;-89
2022/05/29 08:47:18;;;;;;;8.27;4.03;;;;;;;14.20;100.00;93521.19;6216611;23;20003;-88
2022/05/29 08:49:46;;;;;;;17.00;3.58;;;;;;;14.39;100.00;93520.09;6216622;23;20031;-90
2022/05/29 08:52:38;;;;;;;4.63;2.90;;;;;;;14.94;100.00;93517.84;6216271;23;20042;-90
2022/05/29 08:55:15;;;;;;;4.25;2.70;;;;;;;16.08;100.00;93505.94;6217784;23;20039;-89
2022/05/29 08:58:13;;;;;;;;;;;;;;;;;;;;;
2022/05/29 09:01:05;;;;;;;3.35;2.42;;;;;;;16.10;100.00;93512.44;6220225;23;20028;-90
2022/05/29 09:03:51;;;;;;;;;;;;;;;;;;;;;
2022/05/29 09:06:34;;;;;;;;;;;;;;;;;;;;;
2022/05/29 09:09:37;;;;;;;5.80;2.40;;;;;;;16.02;100.00;93507.22;6216720;23;20020;-90
2022/05/29 09:12:46;;;;;;;;;;;;;;;;;;;;;
2022/05/29 09:15:27;;;;;;;4.03;2.92;;;;;;;15.65;100.00;93508.53;6177962;23;20146;-89
2022/05/29 09:17:56;;;;;;;5.00;4.00;;;;;;;15.26;100.00;93511.19;6192160;23;20001;-90
2022/05/29 09:20:31;;;;;;;5.75;3.90;;;;;;;14.01;100.00;93508.34;6191861;23;20357;-90
2022/05/29 09:23:03;;;;;;;6.72;3.88;;;;;;;14.57;100.00;93512.94;6216281;23;20001;-90
2022/05/29 09:25:32;;;;;;;4.82;3.50;;;;;;;15.65;100.00;93508.53;6216080;23;19996;-90
2022/05/29 09:28:30;;;;;;;;;;;;;;;;;;;;;
2022/05/29 09:31:31;;;;;;;8.70;3.20;;;;;;;15.42;100.00;93515.91;6216460;23;20039;-89
2022/05/29 09:34:00;;;;;;;4.50;3.47;;;;;;;15.19;100.00;93512.78;6216383;23;20008;-90
2022/05/29 09:36:51;;;;;;;3.80;3.40;;;;;;;15.29;100.00;93509.78;6193025;23;20029;-91
2022/05/29 09:39:17;;;;;;;5.82;3.90;;;;;;;15.57;100.00;93511.97;6217099;23;20004;-90
2022/05/29 09:42:00;;;;;;;;;;;;;;;;;;;;;
2022/05/29 09:44:53;;;;;;;;;;;;;;;;;;;;;
2022/05/29 09:50:20;;;;;;;15.52;5.25;;;;;;;13.83;100.00;93518.84;6216193;23;20355;-89
2022/05/29 09:52:45;;;;;;;4.97;4.13;;;;;;;14.42;100.00;93517.63;6216613;23;20390;-89
2022/05/29 09:55:32;;;;;;;12.15;4.35;;;;;;;14.52;100.00;93513.09;6215988;23;19997;-89
2022/05/29 09:58:02;;;;;;;12.73;4.30;;;;;;;14.52;100.00;93513.09;6192087;23;20000;-90
2022/05/29 10:00:30;;;;;;;5.88;4.63;;;;;;;14.37;100.00;93517.75;6215637;23;20091;-90
2022/05/29 10:02:56;;;;;;;4.93;3.95;;;;;;;14.87;100.00;93520.19;6216064;23;20055;-90
2022/05/29 10:05:27;;;;;;;7.43;4.15;;;;;;;15.12;100.00;93521.97;6215756;23;19996;-91
2022/05/29 10:07:58;;;;;;;9.45;3.92;;;;;;;15.34;100.00;93514.13;6190530;23;20405;-90
2022/05/29 10:10:24;;;;;;;18.58;4.00;;;;;;;14.84;100.00;93517.09;6215705;23;20019;-91
2022/05/29 10:12:57;;;;;;;18.35;3.85;;;;;;;14.39;100.00;93520.84;6217132;23;20000;-91
2022/05/29 10:15:25;;;;;;;18.80;4.45;;;;;;;14.38;100.00;93513.28;6215527;23;20414;-89
2022/05/29 10:17:52;;;;;;;8.13;4.07;;;;;;;14.73;100.00;93515.88;6215555;23;20270;-90
2022/05/29 10:20:44;;;;;;;8.73;3.97;;;;;;;14.90;100.00;93517.69;6216280;23;19996;-92
2022/05/29 10:23:12;;;;;;;11.27;3.83;;;;;;;14.84;100.00;93516.31;6185245;23;20013;-90
2022/05/29 10:25:54;;;;;;;4.97;3.88;;;;;;;14.76;100.00;93520.50;6190594;23;20001;-90
2022/05/29 10:28:22;;;;;;;6.70;3.25;;;;;;;14.73;100.00;93517.75;6215610;23;20000;-90
2022/05/29 10:30:52;;;;;;;36.92;4.63;;;;;;;14.42;100.00;93519.47;6191117;23;20001;-90
2022/05/29 10:33:33;;;;;;;3.90;3.20;;;;;;;14.26;100.00;93529.69;6191973;23;19997;-91
2022/05/29 10:36:11;;;;;;;3.30;3.00;;;;;;;14.16;100.00;93519.50;6190833;23;20012;-90
2022/05/29 10:38:37;;;;;;;18.63;4.60;;;;;;;14.07;100.00;93520.25;6190572;23;20011;-91
2022/05/29 10:41:04;;;;;;;4.97;3.65;;;;;;;14.36;100.00;93520.72;6216815;23;19997;-90
2022/05/29 10:43:50;;;;;;;13.25;4.60;;;;;;;13.96;100.00;93524.28;6217646;23;20091;-90
2022/05/29 10:46:20;;;;;;;7.07;4.13;;;;;;;14.24;100.00;93519.50;6192513;23;19996;-89
2022/05/29 10:48:57;;;;;;;32.70;5.00;;;;;;;13.57;100.00;93519.59;6193458;23;20005;-89
2022/05/29 10:51:43;;;;;;;8.45;4.53;;;;;;;14.36;100.00;93515.44;6217550;23;20397;-90
2022/05/29 10:54:18;;;;;;;4.75;3.75;;;;;;;14.67;100.00;93515.22;6217414;23;20042;-90
2022/05/29 10:56:43;;;;;;;11.73;3.78;;;;;;;14.64;100.00;93521.13;6217591;23;20074;-90
2022/05/29 10:59:15;;;;;;;8.27;3.53;;;;;;;14.49;100.00;93524.25;6217608;23;20005;-90
2022/05/29 11:05:21;;;;;;;6.15;3.92;;;;;;;14.57;100.00;93524.25;6218819;23;20012;-90
2022/05/29 11:07:53;;;;;;;5.20;4.03;;;;;;;14.56;100.00;93516.66;6218823;23;20007;-90
2022/05/29 11:10:30;;;;;;;8.43;3.75;;;;;;;15.08;100.00;93526.34;6218786;23;20062;-90
2022/05/29 11:13:07;;;;;;;4.60;3.75;;;;;;;14.91;100.00;93529.00;6217495;23;20008;-90
2022/05/29 11:16:09;;;;;;;6.80;3.60;;;;;;;14.27;100.00;93534.66;6217425;23;20008;-90
2022/05/29 11:19:13;;;;;;;6.38;3.95;;;;;;;14.23;100.00;93527.69;6217492;23;20390;-90
2022/05/29 11:22:03;;;;;;;5.25;4.18;;;;;;;14.49;100.00;93529.53;6216579;23;20034;-89
2022/05/29 11:25:07;;;;;;;5.55;4.32;;;;;;;13.91;100.00;93519.91;6218713;23;20083;-91
2022/05/29 11:27:57;;;;;;;5.65;4.65;;;;;;;14.36;100.00;93513.56;6191995;23;20000;-90
2022/05/29 11:30:49;;;;;;;5.03;4.32;;;;;;;13.75;100.00;93524.09;6218563;23;20357;-89
2022/05/29 11:33:35;;;;;;;5.05;3.97;;;;;;;13.79;100.00;93530.31;6202114;23;19996;-90
2022/05/29 11:36:11;;;;;;;5.68;4.10;;;;;;;13.90;100.00;93531.53;6217607;23;20298;-91
2022/05/29 11:39:12;;;;;;;4.45;3.72;;;;;;;13.97;100.00;93529.25;6192959;23;20398;-91
2022/05/29 11:41:47;;;;;;;11.40;4.93;;;;;;;13.61;100.00;93530.25;6196704;23;20005;-91
2022/05/29 11:44:34;;;;;;;4.40;3.58;;;;;;;13.82;100.00;93529.69;6218999;23;20071;-91
2022/05/29 11:53:02;;;;;;;;;;;;;;;;;;;;;
2022/05/29 11:55:35;;;;;;;5.45;4.18;;;;;;;14.27;100.00;93525.97;6217039;23;20362;-90
2022/05/29 11:58:02;;;;;;;6.70;4.00;;;;;;;14.24;100.00;93535.28;6191808;23;20000;-91
2022/05/29 12:01:00;;;;;;;4.20;3.40;;;;;;;14.43;100.00;93526.28;6192077;23;20004;-92
2022/05/29 12:03:44;;;;;;;4.60;3.55;;;;;;;14.42;100.00;93524.72;6193296;23;20344;-91
2022/05/29 12:06:24;;;;;;;4.43;3.33;;;;;;;14.18;100.00;93515.44;6192498;23;20012;-91
2022/05/29 12:09:11;;;;;;;3.95;3.42;;;;;;;14.21;100.00;93519.31;6192319;23;20468;-92
2022/05/29 12:12:15;;;;;;;3.35;2.78;;;;;;;14.24;100.00;93526.59;6217881;23;20005;-91
2022/05/29 12:14:46;;;;;;;6.30;3.20;;;;;;;14.24;100.00;93527.38;6192638;23;20047;-92
2022/05/29 12:17:25;;;;;;;5.45;3.30;;;;;;;14.12;100.00;93530.63;6192317;23;20000;-92
2022/05/29 12:20:02;;;;;;;8.73;3.60;;;;;;;14.28;100.00;93530.19;6216673;23;20000;-90
2022/05/29 12:23:01;;;;;;;;;;;;;;;;;;;;;
2022/05/29 12:25:41;;;;;;;6.40;4.40;;;;;;;13.96;100.00;93525.06;6216736;23;20080;-92
2022/05/29 12:28:10;;;;;;;4.72;3.95;;;;;;;13.85;100.00;93529.84;6192174;23;20008;-90
2022/05/29 12:30:42;;;;;;;7.47;4.00;;;;;;;13.97;100.00;93529.25;6216630;23;20023;-90
2022/05/29 12:33:16;;;;;;;4.85;4.05;;;;;;;13.94;100.00;93535.13;6192350;23;20004;-91
2022/05/29 12:36:06;;;;;;;6.40;4.07;;;;;;;13.74;100.00;93543.59;6216713;23;20000;-92
2022/05/29 12:39:21;;;;;;;4.53;3.95;;;;;;;13.93;100.00;93535.44;6159066;23;20039;-90
2022/05/29 12:42:24;;;;;;;4.20;3.53;;;;;;;13.89;100.00;93535.25;6217003;23;20080;-91
2022/05/29 12:45:15;;;;;;;4.15;3.50;;;;;;;13.62;100.00;93537.06;6216584;23;20048;-91
2022/05/29 12:47:54;;;;;;;4.00;3.50;;;;;;;13.94;100.00;93542.25;6217019;23;20004;-92
2022/05/29 12:50:55;;;;;;;6.72;3.90;;;;;;;14.24;100.00;93539.78;6216791;23;20287;-91
2022/05/29 12:53:39;;;;;;;5.85;3.50;;;;;;;14.06;100.00;93536.34;6191912;23;20024;-91
2022/05/29 12:56:21;;;;;;;4.03;2.80;;;;;;;14.42;100.00;93535.28;6216456;23;20072;-91
2022/05/29 12:59:20;;;;;;;4.15;3.25;;;;;;;14.04;100.00;93539.31;6216523;23;20027;-91
2022/05/29 13:01:54;;;;;;;3.42;2.70;;;;;;;14.36;100.00;93541.81;6215899;23;19996;-92
2022/05/29 13:04:47;;;;;;;4.40;2.70;;;;;;;14.46;100.00;93535.44;6215460;23;20042;-91
2022/05/29 13:07:27;;;;;;;2.28;2.08;;;;;;;14.14;100.00;93538.22;6191443;23;20008;-91
2022/05/29 13:10:27;;;;;;;2.72;1.92;;;;;;;14.18;100.00;93541.78;6191372;23;20027;-91
2022/05/29 13:13:13;;;;;;;3.05;2.53;;;;;;;14.32;100.00;93546.13;6215686;23;19996;-91
2022/05/29 13:15:47;;;;;;;2.70;2.30;;;;;;;14.35;100.00;93548.91;6216288;23;20017;-91
2022/05/29 13:18:42;;;;;;;60.22;3.78;;;;;;;14.07;100.00;93551.84;6215957;23;20000;-91
2022/05/29 13:21:18;;;;;;;2.92;2.45;;;;;;;14.53;100.00;93549.69;6215411;23;20087;-91
2022/05/29 13:23:49;;;;;;;2.33;2.03;;;;;;;15.12;100.00;93545.72;6191264;23;20063;-90
2022/05/29 13:26:23;;;;;;;2.83;1.95;;;;;;;14.69;100.00;93547.31;6191145;23;20028;-91
2022/05/29 13:29:00;;;;;;;4.22;2.03;;;;;;;15.58;100.00;93549.72;6217577;23;20004;-91
2022/05/29 13:31:31;;;;;;;2.90;2.00;;;;;;;15.21;100.00;93550.19;6216146;23;19999;-91
2022/05/29 13:34:28;;;;;;;6.80;2.10;;;;;;;14.44;100.00;93546.28;6216013;23;20005;-91
2022/05/29 13:37:02;;;;;;;1.42;1.33;;;;;;;14.86;100.00;93545.78;6191596;23;19996;-91
2022/05/29 13:39:30;;;;;;;2.58;1.95;;;;;;;14.90;100.00;93556.47;6216603;23;20325;-91
2022/05/29 13:42:02;;;;;;;2.60;2.30;;;;;;;14.27;100.00;93552.31;6216231;23;20004;-91
2022/05/29 13:44:42;;;;;;;2.97;1.90;;;;;;;14.63;100.00;93550.44;6216159;23;20390;-90
2022/05/29 13:47:23;;;;;;;3.55;2.00;;;;;;;15.09;100.00;93546.34;6216122;23;20043;-91
2022/05/29 13:50:12;;;;;;;3.55;2.10;;;;;;;14.96;100.00;93552.59;6217594;23;20035;-90
2022/05/29 13:52:54;;;;;;;2.20;1.90;;;;;;;14.55;100.00;93549.38;6217736;23;19996;-89
2022/05/29 14:04:50;;;;;;;3.85;2.65;;;;;;;14.67;100.00;93543.47;6217431;23;20012;-90
2022/05/29 14:07:22;;;;;;;3.53;2.70;;;;;;;14.54;100.00;93543.34;6216479;23;19997;-89
2022/05/29 14:10:40;;;;;;;;;;;;;;;;;;;;;
2022/05/29 14:13:39;;;;;;;;;;;;;;;;;;;;;
2022/05/29 14:16:17;;;;;;;;;;;;;;;;;;;;;
2022/05/29 14:19:26;;;;;;;6.13;3.90;;;;;;;14.78;100.00;93550.00;6216348;23;20075;-90
2022/05/29 14:22:07;;;;;;;6.68;3.22;;;;;;;14.44;100.00;93545.53;6157889;23;20040;-90
2022/05/29 14:24:42;;;;;;;4.28;3.63;;;;;;;14.31;100.00;93549.84;6215797;23;20345;-90
2022/05/29 14:27:35;;;;;;;6.28;3.72;;;;;;;15.04;100.00;93543.88;6192319;23;20100;-90
2022/05/29 14:30:23;;;;;;;;;;;;;;;;;;;;;
2022/05/29 14:33:06;;;;;;;4.13;2.92;;;;;;;15.03;100.00;93544.94;6215829;23;20020;-91
2022/05/29 14:36:01;;;;;;;;;;;;;;;;;;;;;
2022/05/29 14:39:10;;;;;;;4.25;2.83;;;;;;;13.74;100.00;93548.88;6215818;23;20020;-90
2022/05/29 14:41:41;;;;;;;3.10;2.50;;;;;;;14.40;100.00;93550.63;6216217;23;20023;-91
2022/05/29 14:44:36;;;;;;;7.75;2.90;;;;;;;14.76;100.00;93552.16;6216619;23;20001;-90
2022/05/29 14:47:08;;;;;;;4.43;2.63;;;;;;;14.41;100.00;93546.91;6217096;23;20372;-90
2022/05/29 14:50:30;;;;;;;;;;;;;;;;;;;;;
2022/05/29 14:53:20;;;;;;;2.58;2.25;;;;;;;14.80;100.00;93550.47;6214577;23;20103;-90
2022/05/29 14:56:03;;;;;;;;;;;;;;;;;;;;;
2022/05/29 14:58:59;;;;;;;;;;;;;;;;;;;;;
2022/05/29 15:01:30;;;;;;;2.92;2.42;;;;;;;15.10;100.00;93550.53;6216017;23;20024;-90
2022/05/29 15:04:11;;;;;;;10.43;2.28;;;;;;;14.17;100.00;93550.78;6215964;23;20050;-90
2022/05/29 15:12:40;;;;;;;20.35;2.42;;;;;;;13.99;100.00;93563.19;6215856;23;20058;-90
2022/05/29 15:15:19;;;;;;;2.35;1.52;;;;;;;13.65;100.00;93559.38;6220941;23;20005;-89
2022/05/29 15:18:15;;;;;;;;;;;;;;;;;;;;;
2022/05/29 15:26:37;;;;;;;;;;;;;;;;;;;;;
2022/05/29 15:29:38;;;;;;;0.90;0.70;;;;;;;13.45;100.00;93566.75;6221564;23;20373;-90
2022/05/29 15:32:52;;;;;;;0.40;0.40;;;;;;;12.91;100.00;93575.47;6197899;23;20031;-89
2022/05/29 15:35:30;;;;;;;0.43;0.43;;;;;;;13.14;100.00;93570.94;6174358;23;20012;-89
2022/05/29 15:38:26;;;;;;;;;;;;;;;;;;;;;
2022/05/29 15:41:35;;;;;;;;;;;;;;;;;;;;;
2022/05/29 15:44:22;;;;;;;1.42;0.60;;;;;;;13.51;100.00;93570.03;6226149;23;20031;-89
2022/05/29 15:47:04;;;;;;;4.05;0.43;;;;;;;13.43;100.00;93577.59;6225457;23;20004;-89
2022/05/29 15:49:36;;;;;;;2.53;0.70;;;;;;;13.26;100.00;93585.38;6199718;23;20297;-90
2022/05/29 15:52:06;;;;;;;0.50;0.50;;;;;;;13.32;100.00;93578.13;6219010;23;20003;-90
2022/05/29 15:55:00;;;;;;;2.25;0.60;;;;;;;13.68;100.00;93579.81;6216904;23;20071;-91
2022/05/29 15:57:46;;;;;;;0.90;0.60;;;;;;;13.55;100.00;93577.00;6218380;23;20326;-90
2022/05/29 16:00:17;;;;;;;1.67;0.60;;;;;;;13.49;100.00;93583.47;6216965;23;19992;-89
2022/05/29 16:03:04;;;;;;;0.50;0.43;;;;;;;13.96;100.00;93576.94;6217247;23;20000;-89
2022/05/29 16:05:31;;;;;;;0.50;0.50;;;;;;;13.31;100.00;93579.97;6192498;23;20076;-91
2022/05/29 16:08:17;;;;;;;0.60;0.60;;;;;;;12.96;100.00;93582.44;6216762;23;20063;-89